sensor_id;sensor_type;location;lat;lon;timestamp;temperature;humidity
57843;DHT22;43673;51.058;3.734;2022-10-16T00:02:13;15.20;99.90
57843;DHT22;43673;51.058;3.734;2022-10-16T00:04:38;15.30;99.90
57843;DHT22;43673;51.058;3.734;2022-10-16T00:07:04;15.10;99.90
57843;DHT22;43673;51.058;3.734;2022-10-16T00:09:30;15.10;99.90
57843;DHT22;43673;51.058;3.734;2022-10-16T00:11:55;15.10;99.90
57843;DHT22;43673;51.058;3.734;2022-10-16T00:14:21;15.00;99.90
57843;DHT22;43673;51.058;3.734;2022-10-16T00:16:47;15.20;99.90
57843;DHT22;43673;51.058;3.734;2022-10-16T00:19:12;14.90;99.90
57843;DHT22;43673;51.058;3.734;2022-10-16T00:21:39;14.90;99.90
57843;DHT22;43673;51.058;3.734;2022-10-16T00:24:06;14.80;99.90
57843;DHT22;43673;51.058;3.734;2022-10-16T00:26:35;14.70;99.90
57843;DHT22;43673;51.058;3.734;2022-10-16T00:29:02;14.80;99.90
57843;DHT22;43673;51.058;3.734;2022-10-16T00:31:28;14.80;99.90
57843;DHT22;43673;51.058;3.734;2022-10-16T00:33:54;14.70;99.90
57843;DHT22;43673;51.058;3.734;2022-10-16T00:36:23;14.70;99.90
57843;DHT22;43673;51.058;3.734;2022-10-16T00:38:51;14.70;99.90
57843;DHT22;43673;51.058;3.734;2022-10-16T00:43:56;14.60;99.90
57843;DHT22;43673;51.058;3.734;2022-10-16T00:46:49;14.70;99.90
57843;DHT22;43673;51.058;3.734;2022-10-16T00:49:16;14.60;99.90
57843;DHT22;43673;51.058;3.734;2022-10-16T00:51:49;14.50;99.90
57843;DHT22;43673;51.058;3.734;2022-10-16T00:54:28;14.60;99.90
57843;DHT22;43673;51.058;3.734;2022-10-16T01:05:13;14.50;99.90
57843;DHT22;43673;51.058;3.734;2022-10-16T01:53:53;14.40;99.90
57843;DHT22;43673;51.058;3.734;2022-10-16T02:09:34;14.40;99.90
57843;DHT22;43673;51.058;3.734;2022-10-16T02:14:38;14.40;99.90
57843;DHT22;43673;51.058;3.734;2022-10-16T02:17:11;14.40;99.90
57843;DHT22;43673;51.058;3.734;2022-10-16T02:19:37;14.40;99.90
57843;DHT22;43673;51.058;3.734;2022-10-16T02:33:07;14.40;99.90
57843;DHT22;43673;51.058;3.734;2022-10-16T02:41:08;14.40;99.90
57843;DHT22;43673;51.058;3.734;2022-10-16T02:46:09;14.40;99.90
57843;DHT22;43673;51.058;3.734;2022-10-16T02:51:17;14.40;99.90
57843;DHT22;43673;51.058;3.734;2022-10-16T02:59:32;14.40;99.90
57843;DHT22;43673;51.058;3.734;2022-10-16T03:01:58;14.40;99.90
57843;DHT22;43673;51.058;3.734;2022-10-16T03:04:24;14.40;99.90
57843;DHT22;43673;51.058;3.734;2022-10-16T03:06:49;14.40;99.90
57843;DHT22;43673;51.058;3.734;2022-10-16T03:09:15;14.40;99.90
57843;DHT22;43673;51.058;3.734;2022-10-16T03:36:10;14.20;99.90
57843;DHT22;43673;51.058;3.734;2022-10-16T04:12:49;14.10;99.90
57843;DHT22;43673;51.058;3.734;2022-10-16T04:45:48;13.90;99.90
57843;DHT22;43673;51.058;3.734;2022-10-16T04:48:16;13.90;99.90
57843;DHT22;43673;51.058;3.734;2022-10-16T04:50:41;13.90;99.90
57843;DHT22;43673;51.058;3.734;2022-10-16T04:53:07;13.90;99.90
57843;DHT22;43673;51.058;3.734;2022-10-16T04:55:33;13.90;99.90
57843;DHT22;43673;51.058;3.734;2022-10-16T04:58:04;13.90;99.90
57843;DHT22;43673;51.058;3.734;2022-10-16T05:00:41;13.90;99.90
57843;DHT22;43673;51.058;3.734;2022-10-16T05:08:17;13.90;99.90
57843;DHT22;43673;51.058;3.734;2022-10-16T05:10:44;13.90;99.90
57843;DHT22;43673;51.058;3.734;2022-10-16T05:29:08;14.20;99.90
57843;DHT22;43673;51.058;3.734;2022-10-16T05:40:03;14.40;99.90
57843;DHT22;43673;51.058;3.734;2022-10-16T05:42:30;14.40;99.90
57843;DHT22;43673;51.058;3.734;2022-10-16T05:44:56;14.50;99.90
57843;DHT22;43673;51.058;3.734;2022-10-16T05:47:22;14.50;99.90
57843;DHT22;43673;51.058;3.734;2022-10-16T05:49:47;14.60;99.90
57843;DHT22;43673;51.058;3.734;2022-10-16T05:52:13;14.60;99.90
57843;DHT22;43673;51.058;3.734;2022-10-16T05:54:39;14.50;99.90
57843;DHT22;43673;51.058;3.734;2022-10-16T05:57:04;14.50;99.90
57843;DHT22;43673;51.058;3.734;2022-10-16T05:59:52;14.50;99.90
57843;DHT22;43673;51.058;3.734;2022-10-16T06:02:18;14.40;99.90
57843;DHT22;43673;51.058;3.734;2022-10-16T06:18:04;14.00;99.90
57843;DHT22;43673;51.058;3.734;2022-10-16T06:25:40;14.00;99.90
57843;DHT22;43673;51.058;3.734;2022-10-16T06:28:06;14.00;99.90
57843;DHT22;43673;51.058;3.734;2022-10-16T06:33:07;14.10;99.90
57843;DHT22;43673;51.058;3.734;2022-10-16T06:35:33;14.10;99.90
57843;DHT22;43673;51.058;3.734;2022-10-16T06:37:59;14.20;99.90
57843;DHT22;43673;51.058;3.734;2022-10-16T06:40:24;14.30;99.90
57843;DHT22;43673;51.058;3.734;2022-10-16T06:42:50;14.30;99.90
57843;DHT22;43673;51.058;3.734;2022-10-16T06:45:17;14.20;99.90
57843;DHT22;43673;51.058;3.734;2022-10-16T06:47:43;14.40;99.90
57843;DHT22;43673;51.058;3.734;2022-10-16T06:50:08;14.50;99.90
57843;DHT22;43673;51.058;3.734;2022-10-16T06:52:34;14.60;99.90
57843;DHT22;43673;51.058;3.734;2022-10-16T06:55:00;14.50;99.90
57843;DHT22;43673;51.058;3.734;2022-10-16T06:57:26;14.70;99.90
57843;DHT22;43673;51.058;3.734;2022-10-16T06:59:52;14.70;99.90
57843;DHT22;43673;51.058;3.734;2022-10-16T07:02:17;14.70;99.90
57843;DHT22;43673;51.058;3.734;2022-10-16T07:04:43;14.80;99.90
57843;DHT22;43673;51.058;3.734;2022-10-16T07:07:09;14.90;99.90
57843;DHT22;43673;51.058;3.734;2022-10-16T07:09:34;14.80;99.90
57843;DHT22;43673;51.058;3.734;2022-10-16T07:12:00;14.90;99.90
57843;DHT22;43673;51.058;3.734;2022-10-16T07:17:05;14.90;99.90
57843;DHT22;43673;51.058;3.734;2022-10-16T07:19:31;15.00;99.90
57843;DHT22;43673;51.058;3.734;2022-10-16T07:21:57;14.90;99.90
57843;DHT22;43673;51.058;3.734;2022-10-16T07:30:26;15.10;99.90
57843;DHT22;43673;51.058;3.734;2022-10-16T07:32:52;15.00;99.90
57843;DHT22;43673;51.058;3.734;2022-10-16T07:38:06;15.00;99.90
57843;DHT22;43673;51.058;3.734;2022-10-16T07:40:31;15.20;99.90
57843;DHT22;43673;51.058;3.734;2022-10-16T07:42:57;15.30;99.90
57843;DHT22;43673;51.058;3.734;2022-10-16T07:45:23;15.50;99.90
57843;DHT22;43673;51.058;3.734;2022-10-16T07:47:48;15.90;99.90
57843;DHT22;43673;51.058;3.734;2022-10-16T07:50:14;16.50;99.90
57843;DHT22;43673;51.058;3.734;2022-10-16T07:52:40;17.50;99.90
57843;DHT22;43673;51.058;3.734;2022-10-16T07:55:06;17.80;99.90
57843;DHT22;43673;51.058;3.734;2022-10-16T07:57:32;17.70;99.90
57843;DHT22;43673;51.058;3.734;2022-10-16T07:59:57;18.10;99.90
57843;DHT22;43673;51.058;3.734;2022-10-16T08:02:23;18.90;99.90
57843;DHT22;43673;51.058;3.734;2022-10-16T08:04:48;19.60;99.90
57843;DHT22;43673;51.058;3.734;2022-10-16T08:07:15;20.20;99.90
57843;DHT22;43673;51.058;3.734;2022-10-16T08:09:41;20.80;99.90
57843;DHT22;43673;51.058;3.734;2022-10-16T08:12:07;21.20;99.90
57843;DHT22;43673;51.058;3.734;2022-10-16T08:14:33;21.60;99.90
57843;DHT22;43673;51.058;3.734;2022-10-16T08:16:58;21.50;99.90
57843;DHT22;43673;51.058;3.734;2022-10-16T08:19:24;21.40;99.90
57843;DHT22;43673;51.058;3.734;2022-10-16T08:21:50;21.50;99.90
57843;DHT22;43673;51.058;3.734;2022-10-16T08:24:15;21.60;99.90
57843;DHT22;43673;51.058;3.734;2022-10-16T08:26:41;21.80;99.90
57843;DHT22;43673;51.058;3.734;2022-10-16T08:29:07;22.00;99.90
57843;DHT22;43673;51.058;3.734;2022-10-16T08:31:32;22.40;99.90
57843;DHT22;43673;51.058;3.734;2022-10-16T08:33:58;22.70;99.90
57843;DHT22;43673;51.058;3.734;2022-10-16T08:36:23;22.80;99.90
57843;DHT22;43673;51.058;3.734;2022-10-16T08:38:50;22.90;99.90
57843;DHT22;43673;51.058;3.734;2022-10-16T08:43:57;23.30;99.90
57843;DHT22;43673;51.058;3.734;2022-10-16T08:46:40;23.70;99.90
57843;DHT22;43673;51.058;3.734;2022-10-16T08:49:11;24.40;99.90
57843;DHT22;43673;51.058;3.734;2022-10-16T08:51:39;24.90;99.90
57843;DHT22;43673;51.058;3.734;2022-10-16T08:56:57;24.30;99.90
57843;DHT22;43673;51.058;3.734;2022-10-16T08:59:26;24.10;99.90
57843;DHT22;43673;51.058;3.734;2022-10-16T09:01:52;23.60;99.90
57843;DHT22;43673;51.058;3.734;2022-10-16T09:04:49;23.30;99.90
57843;DHT22;43673;51.058;3.734;2022-10-16T09:07:32;22.80;99.90
57843;DHT22;43673;51.058;3.734;2022-10-16T09:10:19;22.60;99.90
57843;DHT22;43673;51.058;3.734;2022-10-16T09:13:00;22.70;99.90
57843;DHT22;43673;51.058;3.734;2022-10-16T09:15:46;23.10;99.90
57843;DHT22;43673;51.058;3.734;2022-10-16T09:18:34;23.60;99.90
57843;DHT22;43673;51.058;3.734;2022-10-16T09:23:35;24.20;99.90
57843;DHT22;43673;51.058;3.734;2022-10-16T09:26:11;24.40;99.90
57843;DHT22;43673;51.058;3.734;2022-10-16T09:28:52;24.70;99.90
57843;DHT22;43673;51.058;3.734;2022-10-16T09:31:20;25.00;99.90
57843;DHT22;43673;51.058;3.734;2022-10-16T09:33:55;25.60;99.70
57843;DHT22;43673;51.058;3.734;2022-10-16T09:36:40;26.20;98.10
57843;DHT22;43673;51.058;3.734;2022-10-16T09:39:09;25.90;97.60
57843;DHT22;43673;51.058;3.734;2022-10-16T09:41:43;25.60;97.80
57843;DHT22;43673;51.058;3.734;2022-10-16T09:44:22;25.50;97.90
57843;DHT22;43673;51.058;3.734;2022-10-16T09:47:21;25.40;97.90
57843;DHT22;43673;51.058;3.734;2022-10-16T09:49:59;25.40;98.10
57843;DHT22;43673;51.058;3.734;2022-10-16T09:52:33;25.50;98.00
57843;DHT22;43673;51.058;3.734;2022-10-16T09:55:19;25.80;97.10
57843;DHT22;43673;51.058;3.734;2022-10-16T09:57:52;25.90;97.20
57843;DHT22;43673;51.058;3.734;2022-10-16T10:00:29;26.20;96.70
57843;DHT22;43673;51.058;3.734;2022-10-16T10:03:11;26.30;96.20
57843;DHT22;43673;51.058;3.734;2022-10-16T10:05:39;25.90;96.20
57843;DHT22;43673;51.058;3.734;2022-10-16T10:08:05;26.30;96.00
57843;DHT22;43673;51.058;3.734;2022-10-16T10:10:37;26.80;95.50
57843;DHT22;43673;51.058;3.734;2022-10-16T10:13:27;27.40;95.00
57843;DHT22;43673;51.058;3.734;2022-10-16T10:15:54;27.50;93.90
57843;DHT22;43673;51.058;3.734;2022-10-16T10:18:23;27.60;93.90
57843;DHT22;43673;51.058;3.734;2022-10-16T10:21:00;27.90;93.50
57843;DHT22;43673;51.058;3.734;2022-10-16T10:23:29;28.10;92.50
57843;DHT22;43673;51.058;3.734;2022-10-16T10:26:20;28.20;92.40
57843;DHT22;43673;51.058;3.734;2022-10-16T11:03:03;25.60;93.50
57843;DHT22;43673;51.058;3.734;2022-10-16T11:05:44;25.40;93.90
57843;DHT22;43673;51.058;3.734;2022-10-16T11:08:17;24.90;94.10
57843;DHT22;43673;51.058;3.734;2022-10-16T11:10:58;24.40;95.00
57843;DHT22;43673;51.058;3.734;2022-10-16T11:13:51;24.10;95.40
57843;DHT22;43673;51.058;3.734;2022-10-16T11:16:26;23.70;95.90
57843;DHT22;43673;51.058;3.734;2022-10-16T11:21:33;23.00;96.90
57843;DHT22;43673;51.058;3.734;2022-10-16T11:24:19;22.80;96.90
57843;DHT22;43673;51.058;3.734;2022-10-16T11:26:48;22.70;96.70
57843;DHT22;43673;51.058;3.734;2022-10-16T11:29:28;22.60;96.30
57843;DHT22;43673;51.058;3.734;2022-10-16T11:31:59;22.40;96.80
57843;DHT22;43673;51.058;3.734;2022-10-16T11:34:44;22.50;97.40
57843;DHT22;43673;51.058;3.734;2022-10-16T11:37:18;22.90;97.40
57843;DHT22;43673;51.058;3.734;2022-10-16T11:39:45;24.20;96.60
57843;DHT22;43673;51.058;3.734;2022-10-16T11:45:15;25.30;93.70
57843;DHT22;43673;51.058;3.734;2022-10-16T11:47:51;24.40;94.20
57843;DHT22;43673;51.058;3.734;2022-10-16T11:53:31;23.00;95.20
57843;DHT22;43673;51.058;3.734;2022-10-16T11:56:00;22.40;96.40
57843;DHT22;43673;51.058;3.734;2022-10-16T11:58:36;22.00;97.50
57843;DHT22;43673;51.058;3.734;2022-10-16T12:01:22;21.70;97.50
57843;DHT22;43673;51.058;3.734;2022-10-16T12:04:16;21.70;97.50
57843;DHT22;43673;51.058;3.734;2022-10-16T12:11:47;21.00;99.20
57843;DHT22;43673;51.058;3.734;2022-10-16T12:16:57;20.70;99.20
57843;DHT22;43673;51.058;3.734;2022-10-16T12:19:26;20.80;98.90
57843;DHT22;43673;51.058;3.734;2022-10-16T12:21:55;20.80;98.80
57843;DHT22;43673;51.058;3.734;2022-10-16T12:24:38;20.80;99.10
57843;DHT22;43673;51.058;3.734;2022-10-16T12:27:06;20.70;99.20
57843;DHT22;43673;51.058;3.734;2022-10-16T12:29:42;20.80;99.90
57843;DHT22;43673;51.058;3.734;2022-10-16T12:32:37;20.90;99.80
57843;DHT22;43673;51.058;3.734;2022-10-16T12:35:19;20.90;99.20
57843;DHT22;43673;51.058;3.734;2022-10-16T12:37:46;20.90;99.60
57843;DHT22;43673;51.058;3.734;2022-10-16T12:40:22;20.90;99.00
57843;DHT22;43673;51.058;3.734;2022-10-16T12:42:48;20.90;98.90
57843;DHT22;43673;51.058;3.734;2022-10-16T12:45:33;21.00;99.20
57843;DHT22;43673;51.058;3.734;2022-10-16T12:48:18;21.20;99.10
57843;DHT22;43673;51.058;3.734;2022-10-16T12:50:44;21.40;99.00
57843;DHT22;43673;51.058;3.734;2022-10-16T12:53:22;21.60;98.70
57843;DHT22;43673;51.058;3.734;2022-10-16T12:56:20;21.80;98.40
57843;DHT22;43673;51.058;3.734;2022-10-16T13:07:36;21.90;98.30
57843;DHT22;43673;51.058;3.734;2022-10-16T13:15:47;21.80;98.70
57843;DHT22;43673;51.058;3.734;2022-10-16T13:18:27;21.70;98.60
57843;DHT22;43673;51.058;3.734;2022-10-16T13:21:04;21.50;99.10
57843;DHT22;43673;51.058;3.734;2022-10-16T13:27:21;21.40;99.50
57843;DHT22;43673;51.058;3.734;2022-10-16T13:29:58;21.20;99.70
57843;DHT22;43673;51.058;3.734;2022-10-16T13:32:26;21.10;99.90
57843;DHT22;43673;51.058;3.734;2022-10-16T13:34:52;21.20;99.90
57843;DHT22;43673;51.058;3.734;2022-10-16T13:37:21;21.40;99.70
57843;DHT22;43673;51.058;3.734;2022-10-16T13:39:47;21.40;99.60
57843;DHT22;43673;51.058;3.734;2022-10-16T13:42:25;21.50;99.70
57843;DHT22;43673;51.058;3.734;2022-10-16T13:44:53;21.80;99.60
57843;DHT22;43673;51.058;3.734;2022-10-16T13:47:21;22.10;99.10
57843;DHT22;43673;51.058;3.734;2022-10-16T13:50:20;22.30;98.90
57843;DHT22;43673;51.058;3.734;2022-10-16T13:52:45;22.10;99.00
57843;DHT22;43673;51.058;3.734;2022-10-16T13:55:12;21.90;99.60
57843;DHT22;43673;51.058;3.734;2022-10-16T13:57:38;21.60;99.90
57843;DHT22;43673;51.058;3.734;2022-10-16T14:00:26;21.40;99.90
57843;DHT22;43673;51.058;3.734;2022-10-16T14:03:05;21.30;99.90
57843;DHT22;43673;51.058;3.734;2022-10-16T14:05:32;21.20;99.90
57843;DHT22;43673;51.058;3.734;2022-10-16T14:07:59;21.30;99.90
57843;DHT22;43673;51.058;3.734;2022-10-16T14:10:30;21.30;99.90
57843;DHT22;43673;51.058;3.734;2022-10-16T14:13:05;21.30;99.90
57843;DHT22;43673;51.058;3.734;2022-10-16T14:15:33;21.10;99.90
57843;DHT22;43673;51.058;3.734;2022-10-16T14:18:00;21.10;99.90
57843;DHT22;43673;51.058;3.734;2022-10-16T14:20:28;21.00;99.90
57843;DHT22;43673;51.058;3.734;2022-10-16T14:23:01;21.00;99.90
57843;DHT22;43673;51.058;3.734;2022-10-16T14:25:32;21.00;99.90
57843;DHT22;43673;51.058;3.734;2022-10-16T14:28:04;20.70;99.90
57843;DHT22;43673;51.058;3.734;2022-10-16T14:30:32;20.70;99.90
57843;DHT22;43673;51.058;3.734;2022-10-16T14:33:01;20.60;99.90
57843;DHT22;43673;51.058;3.734;2022-10-16T14:35:33;20.60;99.90
57843;DHT22;43673;51.058;3.734;2022-10-16T14:38:01;20.70;99.90
57843;DHT22;43673;51.058;3.734;2022-10-16T14:40:38;20.70;99.90
57843;DHT22;43673;51.058;3.734;2022-10-16T14:43:04;20.50;99.90
57843;DHT22;43673;51.058;3.734;2022-10-16T14:45:33;20.50;99.90
57843;DHT22;43673;51.058;3.734;2022-10-16T14:48:12;20.40;99.90
57843;DHT22;43673;51.058;3.734;2022-10-16T14:50:41;20.30;99.90
57843;DHT22;43673;51.058;3.734;2022-10-16T14:53:13;20.40;99.90
57843;DHT22;43673;51.058;3.734;2022-10-16T14:55:40;20.50;99.90
57843;DHT22;43673;51.058;3.734;2022-10-16T14:58:09;20.50;99.90
57843;DHT22;43673;51.058;3.734;2022-10-16T15:00:36;20.60;99.90
57843;DHT22;43673;51.058;3.734;2022-10-16T15:03:02;20.50;99.90
57843;DHT22;43673;51.058;3.734;2022-10-16T15:05:28;20.60;99.90
57843;DHT22;43673;51.058;3.734;2022-10-16T15:07:54;20.40;99.90
57843;DHT22;43673;51.058;3.734;2022-10-16T15:10:24;20.30;99.90
57843;DHT22;43673;51.058;3.734;2022-10-16T15:12:51;20.10;99.90
57843;DHT22;43673;51.058;3.734;2022-10-16T15:17:51;20.00;99.90
57843;DHT22;43673;51.058;3.734;2022-10-16T15:20:23;20.00;99.90
57843;DHT22;43673;51.058;3.734;2022-10-16T15:22:49;20.00;99.90
57843;DHT22;43673;51.058;3.734;2022-10-16T15:25:41;19.90;99.90
57843;DHT22;43673;51.058;3.734;2022-10-16T15:28:08;19.90;99.90
57843;DHT22;43673;51.058;3.734;2022-10-16T15:30:35;19.90;99.90
57843;DHT22;43673;51.058;3.734;2022-10-16T15:33:01;19.90;99.90
57843;DHT22;43673;51.058;3.734;2022-10-16T15:35:27;19.70;99.90
57843;DHT22;43673;51.058;3.734;2022-10-16T15:37:53;19.60;99.90
57843;DHT22;43673;51.058;3.734;2022-10-16T15:40:20;19.60;99.90
57843;DHT22;43673;51.058;3.734;2022-10-16T15:42:46;19.40;99.90
57843;DHT22;43673;51.058;3.734;2022-10-16T15:45:12;19.40;99.90
57843;DHT22;43673;51.058;3.734;2022-10-16T15:47:39;19.30;99.90
57843;DHT22;43673;51.058;3.734;2022-10-16T15:50:06;19.30;99.90
57843;DHT22;43673;51.058;3.734;2022-10-16T15:52:32;19.30;99.90
57843;DHT22;43673;51.058;3.734;2022-10-16T15:54:59;19.30;99.90
57843;DHT22;43673;51.058;3.734;2022-10-16T15:57:27;19.30;99.90
57843;DHT22;43673;51.058;3.734;2022-10-16T15:59:52;19.30;99.90
57843;DHT22;43673;51.058;3.734;2022-10-16T16:02:19;19.30;99.90
57843;DHT22;43673;51.058;3.734;2022-10-16T16:04:45;19.30;99.90
57843;DHT22;43673;51.058;3.734;2022-10-16T16:07:11;19.30;99.90
57843;DHT22;43673;51.058;3.734;2022-10-16T16:09:39;19.30;99.90
57843;DHT22;43673;51.058;3.734;2022-10-16T16:12:05;19.40;99.90
57843;DHT22;43673;51.058;3.734;2022-10-16T16:14:32;19.40;99.90
57843;DHT22;43673;51.058;3.734;2022-10-16T16:16:57;19.40;99.90
57843;DHT22;43673;51.058;3.734;2022-10-16T16:19:25;19.40;99.90
57843;DHT22;43673;51.058;3.734;2022-10-16T16:21:51;19.50;99.90
57843;DHT22;43673;51.058;3.734;2022-10-16T16:24:16;19.40;99.90
57843;DHT22;43673;51.058;3.734;2022-10-16T16:26:42;19.40;99.90
57843;DHT22;43673;51.058;3.734;2022-10-16T16:29:13;19.30;99.90
57843;DHT22;43673;51.058;3.734;2022-10-16T16:31:40;19.30;99.90
57843;DHT22;43673;51.058;3.734;2022-10-16T16:34:07;19.30;99.90
57843;DHT22;43673;51.058;3.734;2022-10-16T16:36:33;19.30;99.90
57843;DHT22;43673;51.058;3.734;2022-10-16T16:38:59;19.20;99.90
57843;DHT22;43673;51.058;3.734;2022-10-16T16:41:27;19.10;99.90
57843;DHT22;43673;51.058;3.734;2022-10-16T16:43:54;19.10;99.90
57843;DHT22;43673;51.058;3.734;2022-10-16T16:46:21;19.10;99.90
57843;DHT22;43673;51.058;3.734;2022-10-16T16:48:47;19.10;99.90
57843;DHT22;43673;51.058;3.734;2022-10-16T16:51:17;19.10;99.90
57843;DHT22;43673;51.058;3.734;2022-10-16T16:53:50;19.10;99.90
57843;DHT22;43673;51.058;3.734;2022-10-16T16:56:16;19.00;99.90
57843;DHT22;43673;51.058;3.734;2022-10-16T16:58:45;19.00;99.90
57843;DHT22;43673;51.058;3.734;2022-10-16T17:01:12;19.00;99.90
57843;DHT22;43673;51.058;3.734;2022-10-16T17:03:38;18.90;99.90
57843;DHT22;43673;51.058;3.734;2022-10-16T17:06:04;18.90;99.90
57843;DHT22;43673;51.058;3.734;2022-10-16T17:08:31;18.90;99.90
57843;DHT22;43673;51.058;3.734;2022-10-16T17:10:58;18.90;99.90
57843;DHT22;43673;51.058;3.734;2022-10-16T17:13:25;18.80;99.90
57843;DHT22;43673;51.058;3.734;2022-10-16T17:15:51;18.80;99.90
57843;DHT22;43673;51.058;3.734;2022-10-16T17:18:19;18.70;99.90
57843;DHT22;43673;51.058;3.734;2022-10-16T17:20:45;18.60;99.90
57843;DHT22;43673;51.058;3.734;2022-10-16T17:23:11;18.60;99.90
57843;DHT22;43673;51.058;3.734;2022-10-16T17:25:38;18.60;99.90
57843;DHT22;43673;51.058;3.734;2022-10-16T17:28:04;18.70;99.90
57843;DHT22;43673;51.058;3.734;2022-10-16T17:30:31;18.70;99.90
57843;DHT22;43673;51.058;3.734;2022-10-16T17:33:00;18.70;99.90
57843;DHT22;43673;51.058;3.734;2022-10-16T17:35:26;18.80;99.90
57843;DHT22;43673;51.058;3.734;2022-10-16T17:37:52;18.80;99.90
57843;DHT22;43673;51.058;3.734;2022-10-16T17:40:19;18.80;99.90
57843;DHT22;43673;51.058;3.734;2022-10-16T17:42:46;18.70;99.90
57843;DHT22;43673;51.058;3.734;2022-10-16T17:45:13;18.60;99.90
57843;DHT22;43673;51.058;3.734;2022-10-16T17:47:39;18.60;99.90
57843;DHT22;43673;51.058;3.734;2022-10-16T17:50:07;18.60;99.90
57843;DHT22;43673;51.058;3.734;2022-10-16T17:52:33;18.60;99.90
57843;DHT22;43673;51.058;3.734;2022-10-16T17:54:59;18.60;99.90
57843;DHT22;43673;51.058;3.734;2022-10-16T17:57:26;18.50;99.90
57843;DHT22;43673;51.058;3.734;2022-10-16T17:59:53;18.60;99.90
57843;DHT22;43673;51.058;3.734;2022-10-16T18:02:20;18.50;99.90
57843;DHT22;43673;51.058;3.734;2022-10-16T18:04:46;18.40;99.90
57843;DHT22;43673;51.058;3.734;2022-10-16T18:07:11;18.30;99.90
57843;DHT22;43673;51.058;3.734;2022-10-16T18:09:37;18.30;99.90
57843;DHT22;43673;51.058;3.734;2022-10-16T18:12:03;18.30;99.90
57843;DHT22;43673;51.058;3.734;2022-10-16T18:14:31;18.30;99.90
57843;DHT22;43673;51.058;3.734;2022-10-16T18:16:57;18.20;99.90
57843;DHT22;43673;51.058;3.734;2022-10-16T18:19:24;18.00;99.90
57843;DHT22;43673;51.058;3.734;2022-10-16T18:21:51;17.80;99.90
57843;DHT22;43673;51.058;3.734;2022-10-16T18:24:18;17.70;99.90
57843;DHT22;43673;51.058;3.734;2022-10-16T18:26:44;17.50;99.90
57843;DHT22;43673;51.058;3.734;2022-10-16T18:29:11;17.40;99.90
57843;DHT22;43673;51.058;3.734;2022-10-16T18:31:38;17.50;99.90
57843;DHT22;43673;51.058;3.734;2022-10-16T18:34:04;17.30;99.90
57843;DHT22;43673;51.058;3.734;2022-10-16T18:36:32;17.40;99.90
57843;DHT22;43673;51.058;3.734;2022-10-16T18:38:59;17.30;99.90
57843;DHT22;43673;51.058;3.734;2022-10-16T18:41:26;17.30;99.90
57843;DHT22;43673;51.058;3.734;2022-10-16T18:43:52;17.30;99.90
57843;DHT22;43673;51.058;3.734;2022-10-16T18:46:20;17.40;99.90
57843;DHT22;43673;51.058;3.734;2022-10-16T18:48:47;17.50;99.90
57843;DHT22;43673;51.058;3.734;2022-10-16T18:53:51;17.40;99.90
57843;DHT22;43673;51.058;3.734;2022-10-16T18:56:20;17.40;99.90
57843;DHT22;43673;51.058;3.734;2022-10-16T18:58:49;17.40;99.90
57843;DHT22;43673;51.058;3.734;2022-10-16T19:01:22;17.30;99.90
57843;DHT22;43673;51.058;3.734;2022-10-16T19:03:53;17.20;99.90
57843;DHT22;43673;51.058;3.734;2022-10-16T19:06:19;17.30;99.90
57843;DHT22;43673;51.058;3.734;2022-10-16T19:08:45;17.30;99.90
57843;DHT22;43673;51.058;3.734;2022-10-16T19:11:18;17.30;99.90
57843;DHT22;43673;51.058;3.734;2022-10-16T19:13:45;17.20;99.90
57843;DHT22;43673;51.058;3.734;2022-10-16T19:16:24;17.20;99.90
57843;DHT22;43673;51.058;3.734;2022-10-16T19:18:52;17.20;99.90
57843;DHT22;43673;51.058;3.734;2022-10-16T19:21:18;17.20;99.90
57843;DHT22;43673;51.058;3.734;2022-10-16T19:23:44;17.20;99.90
57843;DHT22;43673;51.058;3.734;2022-10-16T19:26:13;17.20;99.90
57843;DHT22;43673;51.058;3.734;2022-10-16T19:28:39;17.20;99.90
57843;DHT22;43673;51.058;3.734;2022-10-16T19:31:10;17.20;99.90
57843;DHT22;43673;51.058;3.734;2022-10-16T19:33:37;17.20;99.90
57843;DHT22;43673;51.058;3.734;2022-10-16T19:36:12;17.10;99.90
57843;DHT22;43673;51.058;3.734;2022-10-16T19:38:40;17.00;99.90
57843;DHT22;43673;51.058;3.734;2022-10-16T19:41:11;17.00;99.90
57843;DHT22;43673;51.058;3.734;2022-10-16T19:43:37;16.90;99.90
57843;DHT22;43673;51.058;3.734;2022-10-16T19:46:04;16.90;99.90
57843;DHT22;43673;51.058;3.734;2022-10-16T19:48:30;16.90;99.90
57843;DHT22;43673;51.058;3.734;2022-10-16T19:50:56;16.80;99.90
57843;DHT22;43673;51.058;3.734;2022-10-16T19:53:22;16.70;99.90
57843;DHT22;43673;51.058;3.734;2022-10-16T19:55:48;16.70;99.90
57843;DHT22;43673;51.058;3.734;2022-10-16T19:58:14;16.70;99.90
57843;DHT22;43673;51.058;3.734;2022-10-16T20:00:41;16.70;99.90
57843;DHT22;43673;51.058;3.734;2022-10-16T20:03:07;16.60;99.90
57843;DHT22;43673;51.058;3.734;2022-10-16T20:05:32;16.60;99.90
57843;DHT22;43673;51.058;3.734;2022-10-16T20:07:58;16.60;99.90
57843;DHT22;43673;51.058;3.734;2022-10-16T20:10:24;16.60;99.90
57843;DHT22;43673;51.058;3.734;2022-10-16T20:12:51;16.50;99.90
57843;DHT22;43673;51.058;3.734;2022-10-16T20:15:17;16.50;99.90
57843;DHT22;43673;51.058;3.734;2022-10-16T20:17:43;16.50;99.90
57843;DHT22;43673;51.058;3.734;2022-10-16T20:20:09;16.40;99.90
57843;DHT22;43673;51.058;3.734;2022-10-16T20:22:35;16.30;99.90
57843;DHT22;43673;51.058;3.734;2022-10-16T20:25:01;16.30;99.90
57843;DHT22;43673;51.058;3.734;2022-10-16T20:27:26;16.20;99.90
57843;DHT22;43673;51.058;3.734;2022-10-16T20:29:54;16.20;99.90
57843;DHT22;43673;51.058;3.734;2022-10-16T20:32:20;16.10;99.90
57843;DHT22;43673;51.058;3.734;2022-10-16T20:34:46;16.10;99.90
57843;DHT22;43673;51.058;3.734;2022-10-16T20:37:15;16.10;99.90
57843;DHT22;43673;51.058;3.734;2022-10-16T20:39:42;16.10;99.90
57843;DHT22;43673;51.058;3.734;2022-10-16T20:42:10;16.10;99.90
57843;DHT22;43673;51.058;3.734;2022-10-16T20:44:36;16.10;99.90
57843;DHT22;43673;51.058;3.734;2022-10-16T20:47:02;16.10;99.90
57843;DHT22;43673;51.058;3.734;2022-10-16T20:49:28;15.90;99.90
57843;DHT22;43673;51.058;3.734;2022-10-16T20:51:54;15.90;99.90
57843;DHT22;43673;51.058;3.734;2022-10-16T20:54:20;15.70;99.90
57843;DHT22;43673;51.058;3.734;2022-10-16T20:56:47;15.70;99.90
57843;DHT22;43673;51.058;3.734;2022-10-16T20:59:13;15.80;99.90
57843;DHT22;43673;51.058;3.734;2022-10-16T21:01:40;15.90;99.90
57843;DHT22;43673;51.058;3.734;2022-10-16T21:04:07;15.80;99.90
57843;DHT22;43673;51.058;3.734;2022-10-16T21:06:35;15.80;99.90
57843;DHT22;43673;51.058;3.734;2022-10-16T21:09:03;15.70;99.90
57843;DHT22;43673;51.058;3.734;2022-10-16T21:11:34;15.70;99.90
57843;DHT22;43673;51.058;3.734;2022-10-16T21:14:04;15.70;99.90
57843;DHT22;43673;51.058;3.734;2022-10-16T21:16:30;15.60;99.90
57843;DHT22;43673;51.058;3.734;2022-10-16T21:18:57;15.80;99.90